createdAt,value
2023-05-09T00:01:43.361Z,17.62
2023-05-09T00:04:17.397Z,17.64
2023-05-09T00:06:48.731Z,17.64
2023-05-09T00:09:20.529Z,17.66
2023-05-09T00:11:51.935Z,17.62
2023-05-09T00:14:23.513Z,17.64
2023-05-09T00:16:55.266Z,17.68
2023-05-09T00:19:25.882Z,17.71
2023-05-09T00:21:56.997Z,17.66
2023-05-09T00:24:28.207Z,17.57
2023-05-09T00:26:59.900Z,17.63
2023-05-09T00:29:31.134Z,17.57
2023-05-09T00:32:02.832Z,17.60
2023-05-09T00:34:35.587Z,17.56
2023-05-09T00:37:07.992Z,17.64
2023-05-09T00:39:39.534Z,17.53
2023-05-09T00:42:10.666Z,17.24
2023-05-09T00:44:41.997Z,17.35
2023-05-09T00:47:13.543Z,17.32
2023-05-09T00:49:45.090Z,17.33
2023-05-09T00:52:16.184Z,17.27
2023-05-09T00:54:47.648Z,17.16
2023-05-09T00:57:18.754Z,17.20
2023-05-09T00:59:50.226Z,17.03
2023-05-09T01:02:22.156Z,17.06
2023-05-09T01:04:54.118Z,17.06
2023-05-09T01:07:37.849Z,16.83
2023-05-09T01:10:12.018Z,17.00
2023-05-09T01:13:06.006Z,16.90
2023-05-09T01:15:49.113Z,16.88
2023-05-09T01:18:34.931Z,16.74
2023-05-09T01:21:10.130Z,16.60
2023-05-09T01:23:47.649Z,16.47
2023-05-09T01:26:41.514Z,16.39
2023-05-09T01:29:30.666Z,16.51
2023-05-09T01:32:04.548Z,16.37
2023-05-09T01:34:36.942Z,16.39
2023-05-09T01:37:09.688Z,16.38
2023-05-09T01:39:43.386Z,16.37
2023-05-09T01:42:15.828Z,16.33
2023-05-09T01:44:48.660Z,16.31
2023-05-09T01:47:21.511Z,16.28
2023-05-09T01:49:53.158Z,16.23
2023-05-09T01:52:23.748Z,16.21
2023-05-09T01:54:54.951Z,16.24
2023-05-09T01:57:27.075Z,16.36
2023-05-09T01:59:58.753Z,16.30
2023-05-09T02:02:30.154Z,16.32
2023-05-09T02:05:02.401Z,16.27
2023-05-09T02:07:34.203Z,16.31
2023-05-09T02:10:06.514Z,16.28
2023-05-09T02:12:42.543Z,16.30
2023-05-09T02:15:14.180Z,16.27
2023-05-09T02:17:46.104Z,16.29
2023-05-09T02:20:18.884Z,16.34
2023-05-09T02:22:50.618Z,16.40
2023-05-09T02:25:22.260Z,16.32
2023-05-09T02:27:54.838Z,16.38
2023-05-09T02:30:28.186Z,16.34
2023-05-09T02:33:04.819Z,16.40
2023-05-09T02:35:37.126Z,16.31
2023-05-09T02:38:10.822Z,16.39
2023-05-09T02:40:43.464Z,16.39
2023-05-09T02:43:16.531Z,16.38
2023-05-09T02:45:47.912Z,16.37
2023-05-09T02:48:19.633Z,16.38
2023-05-09T02:50:50.526Z,16.39
2023-05-09T02:53:21.816Z,16.46
2023-05-09T02:55:53.091Z,16.38
2023-05-09T02:58:24.428Z,16.45
2023-05-09T03:00:55.747Z,16.44
2023-05-09T03:03:27.154Z,16.43
2023-05-09T03:05:59.777Z,16.40
2023-05-09T03:08:31.239Z,16.39
2023-05-09T03:11:02.566Z,16.47
2023-05-09T03:13:34.540Z,16.51
2023-05-09T03:16:06.823Z,16.52
2023-05-09T03:18:38.436Z,16.57
2023-05-09T03:21:10.696Z,16.54
2023-05-09T03:23:41.810Z,16.52
2023-05-09T03:26:12.788Z,16.51
2023-05-09T03:28:44.107Z,16.50
2023-05-09T03:31:15.588Z,16.41
2023-05-09T03:33:47.279Z,16.40
2023-05-09T03:36:19.512Z,16.41
2023-05-09T03:38:51.182Z,16.36
2023-05-09T03:41:24.462Z,16.28
2023-05-09T03:43:56.496Z,16.27
2023-05-09T03:46:28.915Z,16.28
2023-05-09T03:49:00.380Z,16.21
2023-05-09T03:51:32.264Z,16.06
2023-05-09T03:54:05.541Z,16.11
2023-05-09T03:56:36.761Z,16.14
2023-05-09T03:59:09.203Z,16.22
2023-05-09T04:01:41.393Z,16.05
2023-05-09T04:04:12.647Z,16.09
2023-05-09T04:06:44.740Z,16.08
2023-05-09T04:09:16.490Z,16.08
2023-05-09T04:11:49.922Z,15.98
2023-05-09T04:14:21.082Z,16.05
2023-05-09T04:16:52.441Z,16.03
2023-05-09T04:19:24.193Z,16.05
2023-05-09T04:21:55.402Z,16.03
2023-05-09T04:24:26.917Z,16.09
2023-05-09T04:26:58.154Z,16.13
2023-05-09T04:29:30.551Z,16.08
2023-05-09T04:32:04.288Z,16.19
2023-05-09T04:34:34.763Z,16.20
2023-05-09T04:37:12.692Z,16.14
2023-05-09T04:39:45.034Z,16.06
2023-05-09T04:42:22.819Z,16.13
2023-05-09T04:44:54.281Z,16.03
2023-05-09T04:47:26.317Z,16.19
2023-05-09T04:49:57.873Z,16.23
2023-05-09T04:52:29.450Z,16.31
2023-05-09T04:55:04.404Z,16.26
2023-05-09T04:57:41.912Z,16.32
2023-05-09T05:00:14.555Z,16.27
2023-05-09T05:02:46.608Z,16.33
2023-05-09T05:05:17.621Z,16.38
2023-05-09T05:07:49.391Z,16.29
2023-05-09T05:10:27.563Z,16.39
2023-05-09T05:13:06.134Z,16.43
2023-05-09T05:15:38.192Z,16.45
2023-05-09T05:18:10.727Z,16.51
2023-05-09T05:20:45.609Z,16.51
2023-05-09T05:23:17.486Z,16.42
2023-05-09T05:25:49.125Z,16.52
2023-05-09T05:28:20.984Z,16.54
2023-05-09T05:30:52.656Z,16.50
2023-05-09T05:33:24.085Z,16.39
2023-05-09T05:35:56.716Z,16.48
2023-05-09T05:38:28.100Z,16.53
2023-05-09T05:41:01.088Z,16.50
2023-05-09T05:43:34.105Z,16.56
2023-05-09T05:46:06.284Z,16.58
2023-05-09T05:48:38.638Z,16.96
2023-05-09T05:51:10.090Z,16.65
2023-05-09T05:53:43.613Z,16.64
2023-05-09T05:56:15.188Z,16.74
2023-05-09T05:58:47.078Z,16.76
2023-05-09T06:01:18.910Z,16.78
2023-05-09T06:03:56.199Z,16.82
2023-05-09T06:06:30.340Z,16.83
2023-05-09T06:09:02.065Z,16.83
2023-05-09T06:11:33.271Z,16.89
2023-05-09T06:14:04.747Z,16.90
2023-05-09T06:16:36.674Z,16.84
2023-05-09T06:19:08.258Z,16.84
2023-05-09T06:21:39.747Z,16.82
2023-05-09T06:24:16.951Z,16.73
2023-05-09T06:26:52.569Z,16.80
2023-05-09T06:29:24.119Z,16.76
2023-05-09T06:31:55.279Z,16.79
2023-05-09T06:34:26.656Z,16.81
2023-05-09T06:36:58.187Z,16.81
2023-05-09T06:39:29.580Z,16.76
2023-05-09T06:42:00.748Z,16.87
2023-05-09T06:44:36.419Z,16.92
2023-05-09T06:47:08.208Z,16.86
2023-05-09T06:49:39.409Z,16.90
2023-05-09T06:52:11.830Z,16.88
2023-05-09T06:54:43.591Z,16.83
2023-05-09T06:57:15.076Z,16.84
2023-05-09T06:59:46.637Z,16.84
2023-05-09T07:02:18.191Z,16.80
2023-05-09T07:04:49.957Z,16.77
2023-05-09T07:07:21.416Z,16.86
2023-05-09T07:10:00.663Z,16.79
2023-05-09T07:12:38.904Z,16.83
2023-05-09T07:15:11.235Z,16.83
2023-05-09T07:17:42.920Z,16.80
2023-05-09T07:20:14.593Z,16.82
2023-05-09T07:22:45.747Z,16.87
2023-05-09T07:25:17.279Z,16.85
2023-05-09T07:27:48.809Z,16.87
2023-05-09T07:30:20.409Z,16.90
2023-05-09T07:32:51.949Z,16.94
2023-05-09T07:35:23.827Z,16.94
2023-05-09T07:37:55.452Z,16.96
2023-05-09T07:40:26.897Z,16.97
2023-05-09T07:42:58.445Z,16.88
2023-05-09T07:45:29.766Z,16.95
2023-05-09T07:48:00.999Z,16.95
2023-05-09T07:50:50.450Z,16.90
2023-05-09T07:53:22.340Z,16.87
2023-05-09T07:55:54.459Z,16.89
2023-05-09T07:58:25.926Z,16.87
2023-05-09T08:00:58.966Z,16.87
2023-05-09T08:03:30.250Z,16.82
2023-05-09T08:06:01.663Z,16.81
2023-05-09T08:08:33.612Z,16.86
2023-05-09T08:11:11.833Z,16.80
2023-05-09T08:13:43.269Z,16.86
2023-05-09T08:16:14.780Z,16.78
2023-05-09T08:18:45.918Z,16.79
2023-05-09T08:21:18.055Z,16.83
2023-05-09T08:23:50.634Z,16.85
2023-05-09T08:26:28.822Z,16.90
2023-05-09T08:29:09.095Z,16.84
2023-05-09T08:31:40.460Z,16.85
2023-05-09T08:34:12.370Z,16.89
2023-05-09T08:36:47.095Z,17.02
2023-05-09T08:39:19.706Z,16.99
2023-05-09T08:41:51.708Z,17.08
2023-05-09T08:44:24.889Z,17.04
2023-05-09T08:46:58.734Z,16.94
2023-05-09T08:49:36.391Z,16.90
2023-05-09T08:52:08.179Z,16.83
2023-05-09T08:54:39.990Z,16.81
2023-05-09T08:57:11.479Z,16.78
2023-05-09T08:59:42.852Z,16.70
2023-05-09T09:02:16.026Z,16.71
2023-05-09T09:04:48.506Z,16.67
2023-05-09T09:07:20.285Z,16.64
2023-05-09T09:09:52.205Z,16.54
2023-05-09T09:12:25.269Z,16.60
2023-05-09T09:14:57.472Z,16.54
2023-05-09T09:17:29.664Z,16.53
2023-05-09T09:20:03.315Z,16.51
2023-05-09T09:22:36.179Z,16.52
2023-05-09T09:25:07.657Z,16.59
2023-05-09T09:27:39.085Z,16.63
2023-05-09T09:30:12.338Z,16.61
2023-05-09T09:32:43.926Z,16.67
2023-05-09T09:35:15.043Z,16.60
2023-05-09T09:37:46.725Z,16.60
2023-05-09T09:40:17.984Z,16.59
2023-05-09T09:42:51.136Z,16.60
2023-05-09T09:45:23.090Z,16.62
2023-05-09T09:47:55.369Z,16.67
2023-05-09T09:50:27.157Z,16.68
2023-05-09T09:52:58.300Z,16.71
2023-05-09T09:55:30.853Z,16.71
2023-05-09T09:58:02.769Z,16.75
2023-05-09T10:00:34.402Z,16.74
2023-05-09T10:03:05.344Z,16.71
2023-05-09T10:05:36.283Z,16.77
2023-05-09T10:08:09.169Z,16.78
2023-05-09T10:10:39.894Z,16.84
2023-05-09T10:13:13.383Z,16.86
2023-05-09T10:15:53.156Z,16.93
2023-05-09T10:18:26.953Z,17.04
2023-05-09T10:20:58.000Z,17.13
2023-05-09T10:23:29.066Z,17.12
2023-05-09T10:26:22.964Z,17.14
2023-05-09T10:28:53.655Z,17.12
2023-05-09T10:31:25.184Z,17.11
2023-05-09T10:33:57.199Z,17.10
2023-05-09T10:36:28.058Z,17.03
2023-05-09T10:38:58.409Z,17.00
2023-05-09T10:41:31.491Z,16.98
2023-05-09T10:44:02.261Z,16.97
2023-05-09T10:46:33.364Z,17.02
2023-05-09T10:49:04.520Z,16.97
2023-05-09T10:51:35.495Z,16.96
2023-05-09T10:54:09.448Z,16.87
2023-05-09T10:56:41.486Z,16.94
2023-05-09T10:59:48.247Z,16.87
2023-05-09T11:02:21.298Z,16.91
2023-05-09T11:04:55.403Z,16.92
2023-05-09T11:07:27.163Z,16.85
2023-05-09T11:10:10.007Z,16.87
2023-05-09T11:12:59.628Z,16.89
2023-05-09T11:15:30.540Z,16.90
2023-05-09T11:18:11.644Z,16.90
2023-05-09T11:20:46.057Z,16.89
2023-05-09T11:23:23.420Z,16.92
2023-05-09T11:25:54.586Z,16.93
2023-05-09T11:28:29.887Z,16.89
2023-05-09T11:31:13.544Z,16.87
2023-05-09T11:33:44.939Z,16.84
2023-05-09T11:36:26.849Z,16.88
2023-05-09T11:39:06.204Z,16.84
2023-05-09T11:41:44.653Z,16.81
2023-05-09T11:44:19.424Z,16.75
2023-05-09T11:46:51.082Z,16.75
2023-05-09T11:49:22.080Z,16.76
2023-05-09T11:51:52.781Z,16.82
2023-05-09T11:54:26.652Z,16.77
2023-05-09T11:56:57.241Z,16.83
2023-05-09T11:59:28.040Z,16.85
2023-05-09T12:01:58.532Z,16.88
2023-05-09T12:04:30.806Z,16.89
2023-05-09T12:07:01.750Z,16.92
2023-05-09T12:09:35.931Z,16.89
2023-05-09T12:12:13.249Z,16.83
2023-05-09T12:14:44.039Z,16.80
2023-05-09T12:17:15.508Z,16.82
2023-05-09T12:19:46.443Z,16.83
2023-05-09T12:22:17.245Z,16.80
2023-05-09T12:24:47.706Z,16.80
2023-05-09T12:27:20.150Z,16.78
2023-05-09T12:29:51.119Z,16.75
2023-05-09T12:32:22.689Z,16.73
2023-05-09T12:34:53.706Z,16.71
2023-05-09T12:37:24.309Z,16.58
2023-05-09T12:40:20.799Z,16.44
2023-05-09T12:42:51.317Z,16.41
2023-05-09T12:45:22.122Z,16.35
2023-05-09T12:47:55.895Z,16.35
2023-05-09T12:50:33.061Z,16.38
2023-05-09T12:53:04.749Z,16.52
2023-05-09T12:55:41.141Z,16.34
2023-05-09T12:58:11.915Z,16.40
2023-05-09T13:00:46.531Z,16.38
2023-05-09T13:03:43.944Z,16.46
2023-05-09T13:06:15.307Z,16.52
2023-05-09T13:08:46.335Z,16.47
2023-05-09T13:11:18.663Z,16.52
2023-05-09T13:13:49.489Z,16.54
2023-05-09T13:16:20.299Z,16.54
2023-05-09T13:18:51.536Z,16.56
2023-05-09T13:21:22.495Z,16.56
2023-05-09T13:23:53.630Z,16.49
2023-05-09T13:26:24.495Z,16.46
2023-05-09T13:28:54.980Z,16.42
2023-05-09T13:31:25.725Z,16.45
2023-05-09T13:33:56.315Z,16.41
2023-05-09T13:36:27.236Z,16.52
2023-05-09T13:38:58.314Z,16.56
2023-05-09T13:41:29.173Z,16.57
2023-05-09T13:43:59.992Z,16.59
2023-05-09T13:46:30.957Z,16.55
2023-05-09T13:49:01.950Z,16.52
2023-05-09T13:51:32.633Z,16.51
2023-05-09T13:54:03.219Z,16.53
2023-05-09T13:56:33.643Z,16.50
2023-05-09T13:59:04.257Z,16.55
2023-05-09T14:01:34.844Z,16.61
2023-05-09T14:04:05.640Z,16.61
2023-05-09T14:06:36.178Z,16.62
2023-05-09T14:09:06.679Z,16.61
2023-05-09T14:11:37.194Z,16.62
2023-05-09T14:14:07.817Z,16.58
2023-05-09T14:16:38.325Z,16.56
2023-05-09T14:19:09.511Z,16.58
2023-05-09T14:21:40.913Z,16.63
2023-05-09T14:24:13.549Z,16.65
2023-05-09T14:26:45.806Z,16.64
2023-05-09T14:29:16.634Z,16.65
2023-05-09T14:31:47.383Z,16.70
2023-05-09T14:34:18.052Z,16.73
2023-05-09T14:36:48.762Z,16.74
2023-05-09T14:39:19.615Z,16.76
2023-05-09T14:41:53.660Z,16.70
2023-05-09T14:44:26.513Z,16.66
2023-05-09T14:46:57.221Z,16.60
2023-05-09T14:49:28.021Z,16.60
2023-05-09T14:52:01.910Z,16.62
2023-05-09T14:54:33.269Z,16.59
2023-05-09T14:57:05.946Z,16.62
2023-05-09T14:59:37.275Z,16.67
2023-05-09T15:02:08.587Z,16.68
2023-05-09T15:04:39.758Z,16.69
2023-05-09T15:07:10.595Z,16.66
2023-05-09T15:09:41.477Z,16.66
2023-05-09T15:12:12.503Z,16.62
2023-05-09T15:14:43.335Z,16.60
2023-05-09T15:17:14.284Z,16.59
2023-05-09T15:19:45.272Z,16.53
2023-05-09T15:22:15.915Z,16.49
2023-05-09T15:24:46.582Z,16.45
2023-05-09T15:27:17.259Z,16.44
2023-05-09T15:29:48.171Z,16.46
2023-05-09T15:32:18.853Z,16.42
2023-05-09T15:34:49.587Z,16.31
2023-05-09T15:37:20.272Z,16.32
2023-05-09T15:39:50.542Z,16.27
2023-05-09T15:42:21.393Z,16.24
2023-05-09T15:44:52.372Z,16.21
2023-05-09T15:47:23.273Z,16.19
2023-05-09T15:49:53.930Z,16.29
2023-05-09T15:52:25.488Z,16.28
2023-05-09T15:54:56.951Z,16.31
2023-05-09T15:57:27.853Z,16.24
2023-05-09T15:59:58.340Z,16.27
2023-05-09T16:02:30.014Z,16.25
2023-05-09T16:05:01.006Z,16.28
2023-05-09T16:07:35.386Z,16.25
2023-05-09T16:10:06.798Z,16.24
2023-05-09T16:12:37.471Z,16.23
2023-05-09T16:15:08.688Z,16.19
2023-05-09T16:17:39.245Z,16.18
2023-05-09T16:20:10.706Z,16.15
2023-05-09T16:22:41.477Z,16.12
2023-05-09T16:25:12.745Z,16.06
2023-05-09T16:27:43.713Z,16.04
2023-05-09T16:30:14.466Z,16.03
2023-05-09T16:32:46.082Z,16.03
2023-05-09T16:35:16.558Z,15.97
2023-05-09T16:37:56.214Z,16.01
2023-05-09T16:40:27.092Z,16.02
2023-05-09T16:42:58.090Z,15.99
2023-05-09T16:45:29.061Z,15.96
2023-05-09T16:48:02.038Z,15.97
2023-05-09T16:50:32.955Z,15.95
2023-05-09T16:53:04.097Z,15.87
2023-05-09T16:55:38.842Z,15.85
2023-05-09T16:58:09.554Z,15.84
2023-05-09T17:00:40.176Z,15.87
2023-05-09T17:03:10.885Z,15.85
2023-05-09T17:06:01.839Z,15.82
2023-05-09T17:09:22.782Z,15.77
2023-05-09T17:12:07.653Z,15.77
2023-05-09T17:14:38.745Z,15.76
2023-05-09T17:17:09.610Z,15.69
2023-05-09T17:19:40.775Z,15.68
2023-05-09T17:22:11.785Z,15.68
2023-05-09T17:24:42.260Z,15.67
2023-05-09T17:27:13.147Z,15.68
2023-05-09T17:29:43.697Z,15.63
2023-05-09T17:32:14.118Z,15.60
2023-05-09T17:34:44.952Z,15.59
2023-05-09T17:37:15.647Z,15.62
2023-05-09T17:39:46.346Z,15.66
2023-05-09T17:42:16.955Z,15.59
2023-05-09T17:44:47.659Z,15.58
2023-05-09T17:47:18.129Z,15.58
2023-05-09T17:49:48.403Z,15.62
2023-05-09T17:52:19.126Z,15.63
2023-05-09T17:54:49.601Z,15.56
2023-05-09T17:57:19.960Z,15.57
2023-05-09T17:59:50.671Z,15.64
2023-05-09T18:02:25.234Z,15.63
2023-05-09T18:04:55.919Z,15.63
2023-05-09T18:07:26.726Z,15.63
2023-05-09T18:09:57.319Z,15.53
2023-05-09T18:12:30.488Z,15.53
2023-05-09T18:15:01.437Z,15.50
2023-05-09T18:17:33.632Z,15.45
2023-05-09T18:20:04.448Z,15.51
2023-05-09T18:22:35.061Z,15.59
2023-05-09T18:25:05.973Z,15.55
2023-05-09T18:27:36.350Z,15.71
2023-05-09T18:30:08.199Z,15.77
2023-05-09T18:32:38.858Z,15.81
2023-05-09T18:35:10.235Z,15.78
2023-05-09T18:37:41.143Z,15.79
2023-05-09T18:40:16.991Z,15.88
2023-05-09T18:42:48.876Z,15.88
2023-05-09T18:45:19.831Z,15.92
2023-05-09T18:47:50.567Z,16.02
2023-05-09T18:50:22.515Z,16.03
2023-05-09T18:52:53.427Z,16.10
2023-05-09T18:55:24.047Z,16.10
2023-05-09T18:57:54.721Z,16.20
2023-05-09T19:00:25.239Z,16.21
2023-05-09T19:02:55.911Z,16.30
2023-05-09T19:05:27.619Z,16.22
2023-05-09T19:08:16.711Z,16.19
2023-05-09T19:11:01.194Z,16.09
2023-05-09T19:13:38.570Z,16.08
2023-05-09T19:16:10.530Z,16.14
2023-05-09T19:18:41.260Z,16.10
2023-05-09T19:21:14.552Z,16.16
2023-05-09T19:23:49.196Z,16.14
2023-05-09T19:26:20.243Z,16.09
2023-05-09T19:28:50.691Z,16.08
2023-05-09T19:31:22.032Z,16.07
2023-05-09T19:33:52.960Z,16.08
2023-05-09T19:36:23.549Z,16.10
2023-05-09T19:38:54.225Z,16.16
2023-05-09T19:41:24.791Z,16.34
2023-05-09T19:43:55.807Z,16.42
2023-05-09T19:46:27.550Z,16.59
2023-05-09T19:48:58.490Z,16.55
2023-05-09T19:51:29.101Z,16.66
2023-05-09T19:54:00.168Z,16.67
2023-05-09T19:56:33.316Z,16.67
2023-05-09T19:59:04.041Z,16.68
2023-05-09T20:01:34.724Z,16.79
2023-05-09T20:04:05.288Z,16.93
2023-05-09T20:06:35.874Z,16.93
2023-05-09T20:09:06.575Z,16.92
2023-05-09T20:11:40.763Z,16.99
2023-05-09T20:14:11.948Z,17.11
2023-05-09T20:16:44.204Z,17.12
2023-05-09T20:19:15.563Z,17.17
2023-05-09T20:21:46.367Z,17.15
2023-05-09T20:24:17.292Z,17.15
2023-05-09T20:26:47.943Z,17.08
2023-05-09T20:29:18.695Z,17.10
2023-05-09T20:31:49.461Z,17.12
2023-05-09T20:34:21.071Z,17.16
2023-05-09T20:36:54.971Z,17.02
2023-05-09T20:39:26.204Z,16.97
2023-05-09T20:41:57.573Z,16.95
2023-05-09T20:44:28.339Z,17.02
2023-05-09T20:46:59.014Z,17.03
2023-05-09T20:49:29.656Z,17.02
2023-05-09T20:52:00.624Z,17.23
2023-05-09T20:54:32.566Z,17.25
2023-05-09T20:57:03.728Z,17.28
2023-05-09T20:59:34.439Z,17.22
2023-05-09T21:02:05.490Z,17.20
2023-05-09T21:04:36.273Z,17.15
2023-05-09T21:07:07.004Z,16.98
2023-05-09T21:09:37.868Z,17.07
2023-05-09T21:12:10.484Z,17.48
2023-05-09T21:14:42.891Z,17.38
2023-05-09T21:17:13.600Z,17.32
2023-05-09T21:19:44.327Z,17.04
2023-05-09T21:22:14.901Z,16.98
2023-05-09T21:24:45.508Z,17.01
2023-05-09T21:27:16.300Z,17.02
2023-05-09T21:29:50.489Z,17.82
2023-05-09T21:32:21.203Z,18.32
2023-05-09T21:34:51.905Z,18.04
2023-05-09T21:37:22.514Z,17.51
2023-05-09T21:39:53.122Z,17.52
2023-05-09T21:42:25.462Z,17.43
2023-05-09T21:44:56.242Z,17.29
2023-05-09T21:47:27.094Z,17.31
2023-05-09T21:49:58.036Z,17.36
2023-05-09T21:52:28.727Z,17.47
2023-05-09T21:54:59.624Z,17.37
2023-05-09T21:57:30.121Z,17.52
2023-05-09T22:00:02.964Z,17.44
2023-05-09T22:02:44.527Z,17.59
2023-05-09T22:05:15.196Z,17.63
2023-05-09T22:07:45.713Z,18.50
2023-05-09T22:10:16.656Z,19.11
2023-05-09T22:12:47.392Z,20.07
2023-05-09T22:15:18.483Z,20.02
2023-05-09T22:17:49.356Z,20.23
2023-05-09T22:20:19.932Z,19.05
2023-05-09T22:22:50.512Z,18.46
2023-05-09T22:25:21.049Z,18.15
2023-05-09T22:27:51.705Z,17.72
2023-05-09T22:30:22.144Z,17.55
2023-05-09T22:32:52.726Z,17.35
2023-05-09T22:35:23.263Z,17.20
2023-05-09T22:37:54.252Z,16.97
2023-05-09T22:40:24.833Z,17.07
2023-05-09T22:42:55.373Z,17.32
2023-05-09T22:45:26.156Z,17.23
2023-05-09T22:47:56.958Z,17.21
2023-05-09T22:50:27.731Z,17.28
2023-05-09T22:52:58.532Z,17.14
2023-05-09T22:55:29.389Z,16.83
2023-05-09T22:58:00.200Z,16.80
2023-05-09T23:00:31.014Z,16.55
2023-05-09T23:03:01.945Z,16.25
2023-05-09T23:05:32.536Z,16.26
2023-05-09T23:08:03.189Z,16.14
2023-05-09T23:10:33.925Z,16.10
2023-05-09T23:13:06.248Z,15.91
2023-05-09T23:15:37.418Z,16.09
2023-05-09T23:18:08.588Z,16.21
2023-05-09T23:20:39.291Z,16.43
2023-05-09T23:23:10.152Z,16.48
2023-05-09T23:25:40.518Z,16.84
2023-05-09T23:28:10.950Z,17.60
2023-05-09T23:30:41.371Z,17.35
2023-05-09T23:33:12.041Z,17.47
2023-05-09T23:35:42.625Z,17.99
2023-05-09T23:38:13.068Z,18.25
2023-05-09T23:40:46.304Z,18.39
2023-05-09T23:43:17.089Z,18.03
2023-05-09T23:45:47.634Z,17.58
2023-05-09T23:48:18.091Z,17.37
2023-05-09T23:50:48.407Z,17.71
2023-05-09T23:53:19.068Z,17.63
2023-05-09T23:55:49.663Z,17.67
2023-05-09T23:58:20.183Z,17.58
